createdAt,value
2018-07-24T05:44:51.796Z,996.2
2018-07-24T05:45:11.964Z,996.2
2018-07-24T05:45:32.112Z,996.2
2018-07-24T05:45:52.309Z,996.2
2018-07-24T05:46:12.469Z,996.2
2018-07-24T05:46:32.612Z,996.2
2018-07-24T05:46:52.745Z,996.2
2018-07-24T05:47:12.951Z,996.2
2018-07-24T05:47:33.128Z,996.2
2018-07-24T05:47:53.313Z,996.2
2018-07-24T05:48:13.443Z,996.2
2018-07-24T05:48:33.633Z,996.2
2018-07-24T05:48:53.899Z,996.2
2018-07-24T05:49:14.073Z,996.2
2018-07-24T05:49:34.246Z,996.2
2018-07-24T05:49:54.439Z,996.2
2018-07-24T05:50:14.606Z,996.2
2018-07-24T05:50:34.787Z,996.2
2018-07-24T05:50:54.936Z,996.2
2018-07-24T05:51:15.093Z,996.2
2018-07-24T05:51:35.237Z,996.2
2018-07-24T05:51:55.418Z,996.2
2018-07-24T05:52:15.586Z,996.1
2018-07-24T05:52:35.788Z,996.1
2018-07-24T05:52:55.922Z,996.1
2018-07-24T05:53:16.037Z,996.2
2018-07-24T05:53:36.213Z,996.2
2018-07-24T05:53:56.365Z,996.2
2018-07-24T05:54:16.560Z,996.2
2018-07-24T05:54:36.718Z,996.1
2018-07-24T05:54:56.898Z,996.1
2018-07-24T05:55:17.081Z,996.1
2018-07-24T05:55:37.233Z,996.2
2018-07-24T05:55:57.376Z,996.1
2018-07-24T05:56:17.537Z,996.2
2018-07-24T05:56:37.729Z,996.1
2018-07-24T05:56:57.914Z,996.1
2018-07-24T05:57:18.052Z,996.1
2018-07-24T05:57:38.214Z,996.1
2018-07-24T05:57:58.397Z,996.1
2018-07-24T05:58:18.577Z,996.2
2018-07-24T05:58:38.728Z,996.1
2018-07-24T05:58:58.909Z,996.1
2018-07-24T05:59:19.047Z,996.1
2018-07-24T05:59:39.213Z,996.1
2018-07-24T05:59:59.431Z,996.2
2018-07-24T06:00:19.634Z,996.1
2018-07-24T06:00:39.846Z,996.1
2018-07-24T06:01:00.024Z,996.1
2018-07-24T06:01:20.187Z,996.1
2018-07-24T06:01:40.366Z,996.2
2018-07-24T06:02:00.571Z,996.2
2018-07-24T06:02:20.886Z,996.1
2018-07-24T06:02:41.050Z,996.2
2018-07-24T06:03:01.195Z,996.1
2018-07-24T06:03:21.354Z,996.1
2018-07-24T06:03:41.526Z,996.1
2018-07-24T06:04:01.712Z,996.1
2018-07-24T06:04:21.927Z,996.1
2018-07-24T06:04:42.093Z,996.1
2018-07-24T06:05:02.245Z,996.1
2018-07-24T06:05:22.375Z,996.1
2018-07-24T06:05:42.534Z,996.2
2018-07-24T06:06:02.730Z,996.1
2018-07-24T06:06:22.835Z,996.2
2018-07-24T06:06:43.029Z,996.2
2018-07-24T06:07:03.196Z,996.2
2018-07-24T06:07:23.401Z,996.2
2018-07-24T06:07:43.525Z,996.2
2018-07-24T06:08:03.699Z,996.2
2018-07-24T06:08:23.848Z,996.2
2018-07-24T06:08:44.000Z,996.2
2018-07-24T06:09:04.153Z,996.2
2018-07-24T06:09:24.288Z,996.2
2018-07-24T06:09:44.440Z,996.2
2018-07-24T06:10:04.641Z,996.2
2018-07-24T06:10:24.815Z,996.2
2018-07-24T06:10:44.970Z,996.2
2018-07-24T06:11:05.132Z,996.2
2018-07-24T06:11:25.305Z,996.2
2018-07-24T06:11:45.456Z,996.2
2018-07-24T06:12:05.612Z,996.2
2018-07-24T06:12:25.781Z,996.2
2018-07-24T06:12:45.956Z,996.2
2018-07-24T06:13:06.127Z,996.2
2018-07-24T06:13:26.276Z,996.2
2018-07-24T06:13:46.502Z,996.2
2018-07-24T06:14:06.664Z,996.2
2018-07-24T06:14:26.890Z,996.2
2018-07-24T06:14:46.960Z,996.2
2018-07-24T06:15:07.145Z,996.2
2018-07-24T06:15:27.295Z,996.2
2018-07-24T06:15:47.437Z,996.2
2018-07-24T06:16:07.618Z,996.2
2018-07-24T06:16:27.835Z,996.2
2018-07-24T06:16:48.069Z,996.2
2018-07-24T06:17:08.454Z,996.2
2018-07-24T06:17:28.584Z,996.2
2018-07-24T06:17:48.723Z,996.2
2018-07-24T06:18:08.946Z,996.2
2018-07-24T06:18:29.048Z,996.2
2018-07-24T06:18:49.205Z,996.2
2018-07-24T06:19:09.365Z,996.2
2018-07-24T06:19:29.555Z,996.2
2018-07-24T06:19:49.697Z,996.2
2018-07-24T06:20:09.850Z,996.2
2018-07-24T06:20:30.015Z,996.2
2018-07-24T06:20:50.216Z,996.2
2018-07-24T06:21:10.359Z,996.2
2018-07-24T06:21:30.507Z,996.2
2018-07-24T06:21:50.757Z,996.1
2018-07-24T06:22:10.865Z,996.2
2018-07-24T06:22:31.074Z,996.1
2018-07-24T06:22:51.313Z,996.2
2018-07-24T06:23:11.451Z,996.2
2018-07-24T06:23:31.650Z,996.1
2018-07-24T06:23:51.777Z,996.1
2018-07-24T06:24:11.950Z,996.1
2018-07-24T06:24:32.119Z,996.1
2018-07-24T06:24:52.269Z,996.1
2018-07-24T06:25:12.444Z,996.1
2018-07-24T06:25:32.609Z,996.2
2018-07-24T06:25:52.760Z,996.1
2018-07-24T06:26:12.923Z,996.2
2018-07-24T06:26:33.081Z,996.2
2018-07-24T06:26:53.230Z,996.2
2018-07-24T06:27:13.396Z,996.2
2018-07-24T06:27:33.575Z,996.1
2018-07-24T06:27:53.715Z,996.2
2018-07-24T06:28:13.869Z,996.1
2018-07-24T06:28:34.037Z,996.2
2018-07-24T06:28:54.202Z,996.2
2018-07-24T06:29:14.399Z,996.2
2018-07-24T06:29:34.512Z,996.2
2018-07-24T06:29:54.693Z,996.1
2018-07-24T06:30:14.843Z,996.2
2018-07-24T06:30:35.010Z,996.2
2018-07-24T06:30:55.169Z,996.1
2018-07-24T06:31:15.333Z,996.2
2018-07-24T06:31:35.493Z,996.2
2018-07-24T06:31:55.638Z,996.1
2018-07-24T06:32:15.795Z,996.2
2018-07-24T06:32:35.963Z,996.2
2018-07-24T06:32:56.106Z,996.2
2018-07-24T06:33:16.310Z,996.2
2018-07-24T06:33:36.460Z,996.2
2018-07-24T06:33:56.585Z,996.2
2018-07-24T06:34:16.758Z,996.2
2018-07-24T06:34:36.902Z,996.2
2018-07-24T06:34:57.079Z,996.2
2018-07-24T06:35:17.235Z,996.2
2018-07-24T06:35:37.417Z,996.2
2018-07-24T06:35:57.592Z,996.2
2018-07-24T06:36:17.742Z,996.2
2018-07-24T06:36:37.901Z,996.2
2018-07-24T06:36:58.066Z,996.2
2018-07-24T06:37:18.255Z,996.2
2018-07-24T06:37:38.446Z,996.2
2018-07-24T06:37:58.591Z,996.2
2018-07-24T06:38:18.753Z,996.2
2018-07-24T06:38:38.938Z,996.2
2018-07-24T06:38:59.085Z,996.2
2018-07-24T06:39:19.262Z,996.1
2018-07-24T06:39:39.489Z,996.2
2018-07-24T06:39:59.650Z,996.2
2018-07-24T06:40:19.808Z,996.2
2018-07-24T06:40:39.995Z,996.2
2018-07-24T06:41:00.193Z,996.2
2018-07-24T06:41:20.385Z,996.2
2018-07-24T06:41:40.560Z,996.2
2018-07-24T06:42:00.724Z,996.1
2018-07-24T06:42:20.884Z,996.1
2018-07-24T06:42:41.050Z,996.2
2018-07-24T06:43:01.237Z,996.1
2018-07-24T06:43:21.397Z,996.2
2018-07-24T06:43:41.571Z,996.2
2018-07-24T06:44:01.754Z,996.2
2018-07-24T06:44:21.979Z,996.2
2018-07-24T06:44:42.156Z,996.2
2018-07-24T06:45:02.230Z,996.2
2018-07-24T06:45:22.393Z,996.2
2018-07-24T06:45:42.579Z,996.2
2018-07-24T06:46:02.767Z,996.2
2018-07-24T06:46:22.939Z,996.2
2018-07-24T06:46:43.119Z,996.2
2018-07-24T06:47:03.278Z,996.2
2018-07-24T06:47:23.445Z,996.2
2018-07-24T06:47:43.630Z,996.2
2018-07-24T06:48:03.773Z,996.2
2018-07-24T06:48:23.906Z,996.3
2018-07-24T06:48:44.092Z,996.2
2018-07-24T06:49:04.243Z,996.2
2018-07-24T06:49:24.414Z,996.2
2018-07-24T06:49:44.575Z,996.2
2018-07-24T06:50:04.732Z,996.2
2018-07-24T06:50:24.904Z,996.2
2018-07-24T06:50:45.057Z,996.3
2018-07-24T06:51:05.275Z,996.2
2018-07-24T06:51:25.535Z,996.3
2018-07-24T06:51:45.907Z,996.2
2018-07-24T06:52:05.967Z,996.2
2018-07-24T06:52:26.137Z,996.2
2018-07-24T06:52:46.323Z,996.3
2018-07-24T06:53:06.490Z,996.2
2018-07-24T06:53:26.647Z,996.2
2018-07-24T06:53:46.872Z,996.2
2018-07-24T06:54:07.033Z,996.3
2018-07-24T06:54:27.197Z,996.2
2018-07-24T06:54:47.386Z,996.2
2018-07-24T06:55:07.566Z,996.2
2018-07-24T06:55:27.729Z,996.2
2018-07-24T06:55:47.941Z,996.2
2018-07-24T06:56:08.091Z,996.2
2018-07-24T06:56:28.265Z,996.2
2018-07-24T06:56:48.377Z,996.2
2018-07-24T06:57:08.547Z,996.2
2018-07-24T06:57:28.699Z,996.2
2018-07-24T06:57:48.853Z,996.1
2018-07-24T06:58:09.019Z,996.2
2018-07-24T06:58:29.170Z,996.1
2018-07-24T06:58:49.364Z,996.2
2018-07-24T06:59:09.522Z,996.2
2018-07-24T06:59:29.689Z,996.2
2018-07-24T06:59:49.828Z,996.1
2018-07-24T07:00:09.999Z,996.1
2018-07-24T07:00:30.170Z,996.2
2018-07-24T07:00:50.343Z,996.2
2018-07-24T07:01:10.492Z,996.2
2018-07-24T07:01:30.655Z,996.1
2018-07-24T07:01:50.829Z,996.2
2018-07-24T07:02:11.157Z,996.2
2018-07-24T07:02:31.240Z,996.2
2018-07-24T07:02:51.401Z,996.2
2018-07-24T07:03:11.571Z,996.1
2018-07-24T07:03:31.820Z,996.2
2018-07-24T07:03:51.878Z,996.2
2018-07-24T07:04:12.028Z,996.2
2018-07-24T07:04:32.200Z,996.2
2018-07-24T07:04:52.371Z,996.2
2018-07-24T07:05:12.676Z,996.2
2018-07-24T07:05:32.811Z,996.2
2018-07-24T07:05:52.981Z,996.2
2018-07-24T07:06:13.136Z,996.2
2018-07-24T07:06:33.321Z,996.2
2018-07-24T07:06:53.510Z,996.2
2018-07-24T07:07:13.715Z,996.2
2018-07-24T07:07:33.927Z,996.2
2018-07-24T07:07:54.035Z,996.2
2018-07-24T07:08:14.178Z,996.2
2018-07-24T07:08:34.360Z,996.2
2018-07-24T07:08:54.528Z,996.2
2018-07-24T07:09:14.687Z,996.2
2018-07-24T07:09:34.838Z,996.2
2018-07-24T07:09:54.999Z,996.2
2018-07-24T07:10:15.314Z,996.2
2018-07-24T07:10:35.393Z,996.2
2018-07-24T07:10:55.568Z,996.2
2018-07-24T07:11:15.732Z,996.2
2018-07-24T07:11:35.907Z,996.2
2018-07-24T07:11:56.052Z,996.2
2018-07-24T07:12:16.215Z,996.2
2018-07-24T07:12:36.393Z,996.2
2018-07-24T07:12:56.546Z,996.2
2018-07-24T07:13:16.764Z,996.2
2018-07-24T07:13:36.953Z,996.2
2018-07-24T07:13:57.105Z,996.2
2018-07-24T07:14:17.282Z,996.1
2018-07-24T07:14:37.456Z,996.1
2018-07-24T07:14:57.585Z,996.2
2018-07-24T07:15:17.727Z,996.2
2018-07-24T07:15:37.892Z,996.2
2018-07-24T07:15:58.046Z,996.2
2018-07-24T07:16:18.222Z,996.2
2018-07-24T07:16:38.373Z,996.2
2018-07-24T07:16:58.554Z,996.2
2018-07-24T07:17:18.709Z,996.2
2018-07-24T07:17:38.900Z,996.2
2018-07-24T07:17:59.066Z,996.2
2018-07-24T07:18:19.265Z,996.2
2018-07-24T07:18:39.451Z,996.2
2018-07-24T07:18:59.629Z,996.2
2018-07-24T07:19:19.817Z,996.2
2018-07-24T07:19:39.977Z,996.2
2018-07-24T07:20:00.140Z,996.2
2018-07-24T07:20:20.327Z,996.2
2018-07-24T07:20:40.680Z,996.2
2018-07-24T07:21:00.849Z,996.2
2018-07-24T07:21:20.994Z,996.2
2018-07-24T07:21:41.226Z,996.2
2018-07-24T07:22:01.451Z,996.2
2018-07-24T07:22:21.635Z,996.2
2018-07-24T07:22:41.837Z,996.2
2018-07-24T07:23:01.993Z,996.2
2018-07-24T07:23:22.210Z,996.2
2018-07-24T07:23:42.436Z,996.2
2018-07-24T07:24:02.582Z,996.2
2018-07-24T07:24:22.748Z,996.2
2018-07-24T07:24:42.905Z,996.2
2018-07-24T07:25:03.063Z,996.2
2018-07-24T07:25:23.226Z,996.2
2018-07-24T07:25:43.375Z,996.2
2018-07-24T07:26:03.522Z,996.2
2018-07-24T07:26:23.719Z,996.2
2018-07-24T07:26:43.902Z,996.2
2018-07-24T07:27:04.127Z,996.1
2018-07-24T07:27:24.218Z,996.1
2018-07-24T07:27:44.380Z,996.2
2018-07-24T07:28:04.535Z,996.2
2018-07-24T07:28:24.708Z,996.2
2018-07-24T07:28:44.876Z,996.2
2018-07-24T07:29:05.053Z,996.1
2018-07-24T07:29:25.230Z,996.2
2018-07-24T07:29:45.423Z,996.2
2018-07-24T07:30:05.599Z,996.1
2018-07-24T07:30:25.755Z,996.1
2018-07-24T07:30:45.905Z,996.1
2018-07-24T07:31:06.055Z,996.1
2018-07-24T07:31:26.226Z,996.1
2018-07-24T07:31:46.399Z,996.2
2018-07-24T07:32:06.578Z,996.1
2018-07-24T07:32:26.806Z,996.1
2018-07-24T07:32:46.885Z,996.1
2018-07-24T07:33:07.027Z,996.1
2018-07-24T07:33:27.200Z,996.1
2018-07-24T07:33:47.393Z,996.1
2018-07-24T07:34:07.539Z,996.1
2018-07-24T07:34:27.705Z,996.1
2018-07-24T07:34:47.888Z,996.1
2018-07-24T07:35:08.064Z,996.1
2018-07-24T07:35:28.252Z,996.1
2018-07-24T07:35:48.421Z,996
2018-07-24T07:36:08.637Z,996
2018-07-24T07:36:28.798Z,996
2018-07-24T07:36:48.948Z,996
2018-07-24T07:37:09.188Z,996.1
2018-07-24T07:37:29.380Z,996.1
2018-07-24T07:37:49.550Z,996
2018-07-24T07:38:09.723Z,996
2018-07-24T07:38:29.897Z,996
2018-07-24T07:38:50.042Z,996
2018-07-24T07:39:10.500Z,996
2018-07-24T07:39:30.589Z,996
2018-07-24T07:39:50.750Z,996
2018-07-24T07:40:10.893Z,996
2018-07-24T07:40:31.074Z,996
2018-07-24T07:40:51.231Z,996
2018-07-24T07:41:11.415Z,996
2018-07-24T07:41:31.594Z,996
2018-07-24T07:41:51.733Z,996
2018-07-24T07:42:11.899Z,996.1
2018-07-24T07:42:32.058Z,996
2018-07-24T07:42:52.261Z,996
2018-07-24T07:43:12.444Z,996.1
2018-07-24T07:43:32.621Z,996
2018-07-24T07:43:52.790Z,996
2018-07-24T07:44:12.956Z,996
2018-07-24T07:44:33.155Z,996.1
2018-07-24T07:44:53.350Z,996.1
2018-07-24T07:45:13.587Z,996.1
2018-07-24T07:45:33.722Z,996.1
2018-07-24T07:45:53.905Z,996
2018-07-24T07:46:14.062Z,996.1
2018-07-24T07:46:34.285Z,996.1
2018-07-24T07:46:54.453Z,996
2018-07-24T07:47:14.660Z,996.1
2018-07-24T07:47:34.837Z,996.1
2018-07-24T07:47:54.983Z,996.1
2018-07-24T07:48:15.132Z,996.1
2018-07-24T07:48:35.296Z,996.1
2018-07-24T07:48:55.461Z,996.1
2018-07-24T07:49:15.650Z,996
2018-07-24T07:49:35.844Z,996
2018-07-24T07:49:56.010Z,996
2018-07-24T07:50:16.159Z,996
2018-07-24T07:50:36.315Z,996
2018-07-24T07:50:56.504Z,996
2018-07-24T07:51:16.645Z,996
2018-07-24T07:51:36.871Z,996
2018-07-24T07:51:56.955Z,996
2018-07-24T07:52:17.105Z,996
2018-07-24T07:52:37.321Z,996
2018-07-24T07:52:57.485Z,996
2018-07-24T07:53:17.656Z,996
2018-07-24T07:53:37.834Z,996
2018-07-24T07:53:58.027Z,996
2018-07-24T07:54:18.180Z,996
2018-07-24T07:54:38.316Z,995.9
2018-07-24T07:54:58.476Z,996
2018-07-24T07:55:18.656Z,996
2018-07-24T07:55:38.822Z,996
2018-07-24T07:55:59.003Z,996
2018-07-24T07:56:19.186Z,995.9
2018-07-24T07:56:39.382Z,995.9
2018-07-24T07:56:59.538Z,995.9
2018-07-24T07:57:19.707Z,995.9
2018-07-24T07:57:39.879Z,995.9
2018-07-24T07:58:00.054Z,995.9
2018-07-24T07:58:20.235Z,996
2018-07-24T07:58:40.436Z,995.9
2018-07-24T07:59:00.580Z,995.9
2018-07-24T07:59:20.745Z,996
2018-07-24T07:59:40.933Z,995.9
2018-07-24T08:00:01.087Z,995.9
2018-07-24T08:00:21.247Z,995.9
2018-07-24T08:00:41.434Z,995.9
2018-07-24T08:01:01.626Z,996
2018-07-24T08:01:21.786Z,995.9
2018-07-24T08:01:41.960Z,996
2018-07-24T08:02:02.107Z,996
2018-07-24T08:02:22.276Z,995.9
2018-07-24T08:02:42.548Z,995.9
2018-07-24T08:03:02.722Z,996
2018-07-24T08:03:22.870Z,995.9
2018-07-24T08:03:43.048Z,995.9
2018-07-24T08:04:03.190Z,995.9
2018-07-24T08:04:23.401Z,995.9
2018-07-24T08:04:43.544Z,995.9
2018-07-24T08:05:03.708Z,995.9
2018-07-24T08:05:23.865Z,995.9
2018-07-24T08:05:44.041Z,995.9
2018-07-24T08:06:04.197Z,995.9
2018-07-24T08:06:24.405Z,995.9
2018-07-24T08:06:44.622Z,995.9
2018-07-24T08:07:04.735Z,995.9
2018-07-24T08:07:24.909Z,995.9
2018-07-24T08:07:45.064Z,995.9
2018-07-24T08:08:05.237Z,995.9
2018-07-24T08:08:25.402Z,995.9
2018-07-24T08:08:45.615Z,995.9
2018-07-24T08:09:05.765Z,995.9
2018-07-24T08:09:25.954Z,995.9
2018-07-24T08:09:46.100Z,995.9
2018-07-24T08:10:06.277Z,995.9
2018-07-24T08:10:26.426Z,995.9
2018-07-24T08:10:46.577Z,995.9
2018-07-24T08:11:06.741Z,995.9
2018-07-24T08:11:26.905Z,995.9
2018-07-24T08:11:47.105Z,995.9
2018-07-24T08:12:07.278Z,995.9
2018-07-24T08:12:27.478Z,995.9
2018-07-24T08:12:47.597Z,995.9
2018-07-24T08:13:07.770Z,995.9
2018-07-24T08:13:27.973Z,995.9
2018-07-24T08:13:48.158Z,995.9
2018-07-24T08:14:08.404Z,996
2018-07-24T08:14:28.472Z,995.9
2018-07-24T08:14:48.655Z,995.9
2018-07-24T08:15:08.807Z,995.9
2018-07-24T08:15:28.967Z,996
2018-07-24T08:15:49.119Z,995.9
2018-07-24T08:16:09.290Z,995.9
2018-07-24T08:16:29.493Z,995.9
2018-07-24T08:16:49.636Z,995.9
2018-07-24T08:17:09.799Z,995.9
2018-07-24T08:17:29.957Z,995.9
2018-07-24T08:17:50.130Z,995.9
2018-07-24T08:18:10.289Z,995.9
2018-07-24T08:18:30.458Z,995.9
2018-07-24T08:18:50.614Z,995.9
2018-07-24T08:19:10.788Z,995.9
2018-07-24T08:19:30.946Z,995.9
2018-07-24T08:19:51.105Z,995.9
2018-07-24T08:20:11.280Z,995.9
2018-07-24T08:20:31.439Z,995.9
2018-07-24T08:20:51.600Z,995.9
2018-07-24T08:21:11.760Z,995.9
2018-07-24T08:21:31.934Z,995.9
2018-07-24T08:21:52.117Z,995.9
2018-07-24T08:22:12.273Z,995.9
2018-07-24T08:22:32.419Z,995.9
2018-07-24T08:22:52.585Z,995.9
2018-07-24T08:23:12.760Z,995.9
2018-07-24T08:23:32.897Z,995.9
2018-07-24T08:23:53.062Z,995.8
2018-07-24T08:24:13.226Z,995.9
2018-07-24T08:24:33.417Z,995.8
2018-07-24T08:24:53.564Z,995.8
2018-07-24T08:25:13.722Z,995.8
2018-07-24T08:25:33.881Z,995.8
2018-07-24T08:25:54.056Z,995.8
2018-07-24T08:26:14.221Z,995.8
2018-07-24T08:26:34.417Z,995.8
2018-07-24T08:26:54.578Z,995.8
2018-07-24T08:27:14.727Z,995.9
2018-07-24T08:27:34.909Z,995.8
2018-07-24T08:27:55.122Z,995.8
2018-07-24T08:28:15.350Z,995.8
2018-07-24T08:28:35.490Z,995.8
2018-07-24T08:28:55.660Z,995.9
2018-07-24T08:29:15.840Z,995.8
2018-07-24T08:29:36.019Z,995.8
2018-07-24T08:29:56.153Z,995.8
2018-07-24T08:30:16.306Z,995.8
2018-07-24T08:30:36.448Z,995.8
2018-07-24T08:30:56.623Z,995.9
2018-07-24T08:31:16.779Z,995.8
2018-07-24T08:31:36.944Z,995.8
2018-07-24T08:31:57.099Z,995.8
2018-07-24T08:32:17.279Z,995.8
2018-07-24T08:32:37.477Z,995.8
2018-07-24T08:32:57.615Z,995.8
2018-07-24T08:33:17.772Z,995.8
2018-07-24T08:33:38.017Z,995.8
2018-07-24T08:33:58.131Z,995.8
2018-07-24T08:34:18.288Z,995.8
2018-07-24T08:34:38.430Z,995.8
2018-07-24T08:34:58.600Z,995.8
2018-07-24T08:35:18.763Z,995.8
2018-07-24T08:35:38.946Z,995.8
2018-07-24T08:35:59.124Z,995.8
2018-07-24T08:36:19.277Z,995.8
2018-07-24T08:36:39.456Z,995.8
2018-07-24T08:36:59.650Z,995.8
2018-07-24T08:37:19.785Z,995.8
2018-07-24T08:37:39.952Z,995.8
2018-07-24T08:38:00.106Z,995.8
2018-07-24T08:38:20.310Z,995.8
2018-07-24T08:38:40.486Z,995.8
2018-07-24T08:39:00.653Z,995.8
2018-07-24T08:39:20.831Z,995.8
2018-07-24T08:39:40.995Z,995.7
2018-07-24T08:40:01.209Z,995.8
2018-07-24T08:40:21.377Z,995.8
2018-07-24T08:40:41.547Z,995.8
2018-07-24T08:41:01.716Z,995.8
2018-07-24T08:41:21.853Z,995.7
2018-07-24T08:41:42.043Z,995.7
2018-07-24T08:42:02.217Z,995.7
2018-07-24T08:42:22.416Z,995.8
2018-07-24T08:42:42.570Z,995.7
2018-07-24T08:43:02.748Z,995.8
2018-07-24T08:43:22.920Z,995.7
2018-07-24T08:43:43.120Z,995.7
2018-07-24T08:44:03.373Z,995.7
2018-07-24T08:44:23.517Z,995.8
2018-07-24T08:44:43.777Z,995.8
2018-07-24T08:45:03.944Z,995.8
2018-07-24T08:45:24.136Z,995.8
2018-07-24T08:45:44.307Z,995.8
2018-07-24T08:46:04.467Z,995.8
2018-07-24T08:46:24.632Z,995.8
2018-07-24T08:46:44.774Z,995.8
2018-07-24T08:47:04.919Z,995.8
2018-07-24T08:47:25.106Z,995.8
2018-07-24T08:47:45.266Z,995.8
2018-07-24T08:48:05.424Z,995.7
2018-07-24T08:48:25.639Z,995.8
2018-07-24T08:48:45.821Z,995.8
2018-07-24T08:49:06.010Z,995.7
2018-07-24T08:49:26.193Z,995.7
2018-07-24T08:49:46.329Z,995.8
2018-07-24T08:50:06.482Z,995.7
2018-07-24T08:50:26.681Z,995.7
2018-07-24T08:50:46.833Z,995.7
2018-07-24T08:51:07.000Z,995.7
2018-07-24T08:51:27.152Z,995.8
2018-07-24T08:51:47.345Z,995.8
2018-07-24T08:52:07.502Z,995.8
2018-07-24T08:52:27.702Z,995.8
2018-07-24T08:52:48.155Z,995.8
2018-07-24T08:53:08.903Z,995.8
2018-07-24T08:53:29.125Z,995.8
2018-07-24T08:53:50.651Z,995.8
2018-07-24T08:54:11.281Z,995.8
2018-07-24T08:54:31.656Z,995.8
2018-07-24T08:54:52.064Z,995.8
2018-07-24T08:55:12.296Z,995.8
2018-07-24T08:55:32.466Z,995.8
2018-07-24T08:55:52.405Z,995.8
2018-07-24T08:56:12.606Z,995.8
2018-07-24T08:56:32.837Z,995.8
2018-07-24T08:56:53.004Z,995.7
2018-07-24T08:57:13.333Z,995.8
2018-07-24T08:57:33.524Z,995.8
2018-07-24T08:57:53.689Z,995.8
2018-07-24T08:58:13.853Z,995.8
2018-07-24T08:58:34.018Z,995.8
2018-07-24T08:58:54.185Z,995.8
2018-07-24T08:59:14.352Z,995.8
2018-07-24T08:59:34.561Z,995.8
2018-07-24T08:59:54.731Z,995.8
2018-07-24T09:00:14.879Z,995.8
2018-07-24T09:00:35.078Z,995.8
2018-07-24T09:00:55.190Z,995.7
2018-07-24T09:01:15.358Z,995.7
2018-07-24T09:01:35.515Z,995.7
2018-07-24T09:01:55.647Z,995.7
2018-07-24T09:02:15.827Z,995.7
2018-07-24T09:02:35.995Z,995.7
2018-07-24T09:02:56.162Z,995.7
2018-07-24T09:03:16.427Z,995.7
2018-07-24T09:03:36.647Z,995.7
2018-07-24T09:03:56.727Z,995.6
2018-07-24T09:04:16.989Z,995.6
2018-07-24T09:04:37.089Z,995.7
2018-07-24T09:04:57.257Z,995.6
2018-07-24T09:05:17.411Z,995.6
2018-07-24T09:05:37.574Z,995.6
2018-07-24T09:05:57.722Z,995.6
2018-07-24T09:06:17.867Z,995.6
2018-07-24T09:06:38.045Z,995.6
2018-07-24T09:06:58.191Z,995.6
2018-07-24T09:07:18.361Z,995.6
2018-07-24T09:07:38.540Z,995.6
2018-07-24T09:07:58.724Z,995.6
2018-07-24T09:08:18.896Z,995.6
2018-07-24T09:08:39.057Z,995.6
2018-07-24T09:08:59.221Z,995.6
2018-07-24T09:09:19.404Z,995.6
2018-07-24T09:09:39.582Z,995.6
2018-07-24T09:09:59.730Z,995.7
2018-07-24T09:10:19.986Z,995.7
2018-07-24T09:10:40.072Z,995.7
2018-07-24T09:11:00.248Z,995.7
2018-07-24T09:11:20.419Z,995.7
2018-07-24T09:11:40.602Z,995.6
2018-07-24T09:12:00.756Z,995.6
2018-07-24T09:12:20.917Z,995.7
2018-07-24T09:12:41.090Z,995.6
2018-07-24T09:13:01.219Z,995.7
2018-07-24T09:13:21.370Z,995.7
2018-07-24T09:13:41.566Z,995.7
2018-07-24T09:14:01.730Z,995.7
2018-07-24T09:14:21.898Z,995.7
2018-07-24T09:14:42.104Z,995.7
2018-07-24T09:15:02.257Z,995.7
2018-07-24T09:15:22.424Z,995.7
2018-07-24T09:15:42.720Z,995.7
2018-07-24T09:16:02.883Z,995.6
2018-07-24T09:16:23.054Z,995.6
2018-07-24T09:16:43.227Z,995.6
2018-07-24T09:17:03.381Z,995.7
2018-07-24T09:17:23.546Z,995.7
2018-07-24T09:17:43.718Z,995.7
2018-07-24T09:18:03.892Z,995.7
2018-07-24T09:18:24.063Z,995.7
2018-07-24T09:18:44.230Z,995.7
2018-07-24T09:19:04.407Z,995.6
2018-07-24T09:19:24.608Z,995.7
2018-07-24T09:19:44.770Z,995.6
2018-07-24T09:20:04.907Z,995.6
2018-07-24T09:20:25.024Z,995.6
2018-07-24T09:20:45.281Z,995.6
2018-07-24T09:21:05.657Z,995.6
2018-07-24T09:21:25.823Z,995.6
2018-07-24T09:21:46.011Z,995.6
2018-07-24T09:22:06.165Z,995.6
2018-07-24T09:22:26.337Z,995.6
2018-07-24T09:22:46.494Z,995.6
2018-07-24T09:23:06.681Z,995.6
2018-07-24T09:23:26.841Z,995.6
2018-07-24T09:23:47.002Z,995.6
2018-07-24T09:24:07.163Z,995.6
2018-07-24T09:24:27.321Z,995.6
2018-07-24T09:24:47.480Z,995.5
2018-07-24T09:25:07.647Z,995.5
2018-07-24T09:25:27.861Z,995.5
2018-07-24T09:25:48.045Z,995.5
2018-07-24T09:26:08.243Z,995.5
2018-07-24T09:26:28.426Z,995.6
2018-07-24T09:26:48.575Z,995.6
2018-07-24T09:27:08.738Z,995.5
2018-07-24T09:27:28.892Z,995.5
2018-07-24T09:27:49.047Z,995.5
2018-07-24T09:28:09.213Z,995.5
2018-07-24T09:28:29.368Z,995.5
2018-07-24T09:28:49.559Z,995.6
2018-07-24T09:29:09.729Z,995.5
2018-07-24T09:29:29.890Z,995.6
2018-07-24T09:29:50.094Z,995.5
2018-07-24T09:30:10.244Z,995.5
2018-07-24T09:30:30.412Z,995.5
2018-07-24T09:30:50.557Z,995.5
2018-07-24T09:31:10.707Z,995.5
2018-07-24T09:31:30.866Z,995.5
2018-07-24T09:31:51.038Z,995.5
2018-07-24T09:32:11.210Z,995.5
2018-07-24T09:32:31.384Z,995.5
2018-07-24T09:32:51.549Z,995.5
2018-07-24T09:33:11.711Z,995.5
2018-07-24T09:33:31.867Z,995.5
2018-07-24T09:33:52.035Z,995.5
2018-07-24T09:34:12.202Z,995.5
2018-07-24T09:34:32.373Z,995.5
2018-07-24T09:34:52.544Z,995.5
2018-07-24T09:35:12.726Z,995.5
2018-07-24T09:35:32.941Z,995.5
2018-07-24T09:35:53.112Z,995.4
2018-07-24T09:36:13.270Z,995.5
2018-07-24T09:36:33.423Z,995.4
2018-07-24T09:36:53.587Z,995.4
2018-07-24T09:37:13.753Z,995.4
2018-07-24T09:37:33.949Z,995.5
2018-07-24T09:37:54.103Z,995.5
2018-07-24T09:38:14.278Z,995.5
2018-07-24T09:38:34.453Z,995.5
2018-07-24T09:38:54.661Z,995.5
2018-07-24T09:39:14.890Z,995.5
2018-07-24T09:39:35.055Z,995.5
2018-07-24T09:39:55.270Z,995.5
2018-07-24T09:40:15.451Z,995.5
2018-07-24T09:40:35.684Z,995.5
2018-07-24T09:40:55.788Z,995.5
2018-07-24T09:41:15.955Z,995.5
2018-07-24T09:41:36.144Z,995.5
2018-07-24T09:41:56.320Z,995.5
2018-07-24T09:42:16.490Z,995.5
2018-07-24T09:42:36.677Z,995.5
2018-07-24T09:42:56.848Z,995.5
2018-07-24T09:43:17.026Z,995.5
2018-07-24T09:43:37.180Z,995.5
2018-07-24T09:43:57.374Z,995.5
2018-07-24T09:44:17.563Z,995.5
2018-07-24T09:44:37.792Z,995.5
2018-07-24T09:44:57.958Z,995.5
2018-07-24T09:45:18.108Z,995.5
2018-07-24T09:45:38.285Z,995.5
2018-07-24T09:45:58.477Z,995.5
2018-07-24T09:46:18.569Z,995.5
2018-07-24T09:46:38.747Z,995.5
2018-07-24T09:46:58.933Z,995.5
2018-07-24T09:47:19.088Z,995.5
2018-07-24T09:47:39.228Z,995.5
2018-07-24T09:47:59.403Z,995.5
2018-07-24T09:48:19.575Z,995.5
2018-07-24T09:48:39.727Z,995.5
2018-07-24T09:48:59.907Z,995.5
2018-07-24T09:49:20.057Z,995.4
2018-07-24T09:49:40.247Z,995.4
2018-07-24T09:50:00.496Z,995.4
2018-07-24T09:50:20.646Z,995.4
2018-07-24T09:50:41.005Z,995.5
2018-07-24T09:51:01.286Z,995.4
2018-07-24T09:51:21.454Z,995.4
2018-07-24T09:51:41.626Z,995.4
2018-07-24T09:52:01.792Z,995.4
2018-07-24T09:52:21.922Z,995.5
2018-07-24T09:52:42.107Z,995.4
2018-07-24T09:53:02.296Z,995.4
2018-07-24T09:53:22.480Z,995.4
2018-07-24T09:53:42.631Z,995.4
2018-07-24T09:54:02.801Z,995.4
2018-07-24T09:54:22.961Z,995.4
2018-07-24T09:54:43.135Z,995.4
2018-07-24T09:55:03.287Z,995.4
2018-07-24T09:55:23.446Z,995.4
2018-07-24T09:55:43.603Z,995.4
2018-07-24T09:56:03.771Z,995.4
2018-07-24T09:56:23.996Z,995.4
2018-07-24T09:56:44.113Z,995.4
2018-07-24T09:57:04.275Z,995.4
2018-07-24T09:57:24.431Z,995.4
2018-07-24T09:57:44.590Z,995.3
2018-07-24T09:58:04.752Z,995.4
2018-07-24T09:58:24.915Z,995.4
2018-07-24T09:58:45.071Z,995.4
2018-07-24T09:59:05.237Z,995.3
2018-07-24T09:59:25.465Z,995.3
2018-07-24T09:59:45.600Z,995.3
2018-07-24T10:00:05.784Z,995.4
2018-07-24T10:00:26.045Z,995.4
2018-07-24T10:00:46.282Z,995.4
2018-07-24T10:01:06.444Z,995.4
2018-07-24T10:01:26.611Z,995.4
2018-07-24T10:01:46.816Z,995.3
2018-07-24T10:02:06.973Z,995.4
2018-07-24T10:02:27.118Z,995.4
2018-07-24T10:02:47.280Z,995.3
2018-07-24T10:03:07.444Z,995.3
2018-07-24T10:03:27.603Z,995.4
2018-07-24T10:03:47.867Z,995.3
2018-07-24T10:04:07.993Z,995.3
2018-07-24T10:04:28.162Z,995.3
2018-07-24T10:04:48.320Z,995.3
2018-07-24T10:05:08.568Z,995.3
2018-07-24T10:05:28.730Z,995.3
2018-07-24T10:05:48.841Z,995.3